sensor_id;sensor_type;location;lat;lon;timestamp;P1;durP1;ratioP1;P2;durP2;ratioP2
71303;SDS011;59091;47.446;19.148;2024-01-16T00:00:54;4.13;;;2.75;;
71303;SDS011;59091;47.446;19.148;2024-01-16T00:03:19;7.07;;;2.95;;
71303;SDS011;59091;47.446;19.148;2024-01-16T00:05:45;5.00;;;3.00;;
71303;SDS011;59091;47.446;19.148;2024-01-16T00:08:10;5.43;;;3.40;;
71303;SDS011;59091;47.446;19.148;2024-01-16T00:10:36;3.90;;;2.78;;
71303;SDS011;59091;47.446;19.148;2024-01-16T00:13:01;3.42;;;2.17;;
71303;SDS011;59091;47.446;19.148;2024-01-16T00:15:26;2.30;;;2.10;;
71303;SDS011;59091;47.446;19.148;2024-01-16T00:17:52;3.28;;;2.33;;
71303;SDS011;59091;47.446;19.148;2024-01-16T00:20:18;3.50;;;2.10;;
71303;SDS011;59091;47.446;19.148;2024-01-16T00:22:43;3.90;;;2.30;;
71303;SDS011;59091;47.446;19.148;2024-01-16T00:25:09;2.33;;;1.88;;
71303;SDS011;59091;47.446;19.148;2024-01-16T00:27:34;2.53;;;2.10;;
71303;SDS011;59091;47.446;19.148;2024-01-16T00:30:00;6.40;;;2.22;;
71303;SDS011;59091;47.446;19.148;2024-01-16T00:32:25;2.50;;;2.30;;
71303;SDS011;59091;47.446;19.148;2024-01-16T00:34:51;2.35;;;2.00;;
71303;SDS011;59091;47.446;19.148;2024-01-16T00:37:16;3.30;;;2.50;;
71303;SDS011;59091;47.446;19.148;2024-01-16T00:39:42;6.00;;;2.22;;
71303;SDS011;59091;47.446;19.148;2024-01-16T00:42:07;2.90;;;2.53;;
71303;SDS011;59091;47.446;19.148;2024-01-16T00:44:33;4.35;;;2.78;;
71303;SDS011;59091;47.446;19.148;2024-01-16T00:46:59;4.22;;;2.78;;
71303;SDS011;59091;47.446;19.148;2024-01-16T00:49:27;3.55;;;2.60;;
71303;SDS011;59091;47.446;19.148;2024-01-16T00:51:53;3.85;;;2.92;;
71303;SDS011;59091;47.446;19.148;2024-01-16T00:54:18;6.38;;;2.53;;
71303;SDS011;59091;47.446;19.148;2024-01-16T00:56:44;3.70;;;2.70;;
71303;SDS011;59091;47.446;19.148;2024-01-16T00:59:09;2.53;;;2.22;;
71303;SDS011;59091;47.446;19.148;2024-01-16T01:01:36;2.95;;;2.50;;
71303;SDS011;59091;47.446;19.148;2024-01-16T01:04:03;3.08;;;2.60;;
71303;SDS011;59091;47.446;19.148;2024-01-16T01:06:28;3.80;;;2.65;;
71303;SDS011;59091;47.446;19.148;2024-01-16T01:08:53;3.40;;;2.67;;
71303;SDS011;59091;47.446;19.148;2024-01-16T01:11:19;3.22;;;2.63;;
71303;SDS011;59091;47.446;19.148;2024-01-16T01:13:44;3.45;;;2.60;;
71303;SDS011;59091;47.446;19.148;2024-01-16T01:16:10;3.65;;;2.55;;
71303;SDS011;59091;47.446;19.148;2024-01-16T01:18:35;3.53;;;2.45;;
71303;SDS011;59091;47.446;19.148;2024-01-16T01:21:00;2.17;;;1.95;;
71303;SDS011;59091;47.446;19.148;2024-01-16T01:23:26;3.58;;;2.60;;
71303;SDS011;59091;47.446;19.148;2024-01-16T01:25:51;3.13;;;2.20;;
71303;SDS011;59091;47.446;19.148;2024-01-16T01:28:17;3.28;;;2.40;;
71303;SDS011;59091;47.446;19.148;2024-01-16T01:30:42;2.60;;;2.40;;
71303;SDS011;59091;47.446;19.148;2024-01-16T01:33:08;2.22;;;1.92;;
71303;SDS011;59091;47.446;19.148;2024-01-16T01:35:33;2.72;;;2.40;;
71303;SDS011;59091;47.446;19.148;2024-01-16T01:37:59;3.63;;;2.22;;
71303;SDS011;59091;47.446;19.148;2024-01-16T01:40:24;3.42;;;2.50;;
71303;SDS011;59091;47.446;19.148;2024-01-16T01:42:50;2.63;;;2.17;;
71303;SDS011;59091;47.446;19.148;2024-01-16T01:45:15;2.70;;;2.33;;
71303;SDS011;59091;47.446;19.148;2024-01-16T01:47:41;3.05;;;2.42;;
71303;SDS011;59091;47.446;19.148;2024-01-16T01:50:09;4.47;;;2.53;;
71303;SDS011;59091;47.446;19.148;2024-01-16T01:52:36;3.00;;;2.38;;
71303;SDS011;59091;47.446;19.148;2024-01-16T01:55:04;5.30;;;2.67;;
71303;SDS011;59091;47.446;19.148;2024-01-16T01:57:33;4.15;;;2.88;;
71303;SDS011;59091;47.446;19.148;2024-01-16T01:59:59;3.10;;;2.20;;
71303;SDS011;59091;47.446;19.148;2024-01-16T02:02:25;3.38;;;2.63;;
71303;SDS011;59091;47.446;19.148;2024-01-16T02:04:51;3.60;;;2.45;;
71303;SDS011;59091;47.446;19.148;2024-01-16T02:07:17;3.67;;;2.42;;
71303;SDS011;59091;47.446;19.148;2024-01-16T02:09:43;2.53;;;2.33;;
71303;SDS011;59091;47.446;19.148;2024-01-16T02:12:08;6.28;;;2.47;;
71303;SDS011;59091;47.446;19.148;2024-01-16T02:14:34;3.42;;;2.55;;
71303;SDS011;59091;47.446;19.148;2024-01-16T02:16:59;2.72;;;2.30;;
71303;SDS011;59091;47.446;19.148;2024-01-16T02:19:25;2.97;;;2.28;;
71303;SDS011;59091;47.446;19.148;2024-01-16T02:21:51;2.60;;;2.33;;
71303;SDS011;59091;47.446;19.148;2024-01-16T02:24:19;2.88;;;2.40;;
71303;SDS011;59091;47.446;19.148;2024-01-16T02:26:45;2.80;;;2.50;;
71303;SDS011;59091;47.446;19.148;2024-01-16T02:29:11;3.42;;;2.78;;
71303;SDS011;59091;47.446;19.148;2024-01-16T02:31:36;4.75;;;2.90;;
71303;SDS011;59091;47.446;19.148;2024-01-16T02:34:02;2.72;;;2.40;;
71303;SDS011;59091;47.446;19.148;2024-01-16T02:36:29;4.95;;;3.08;;
71303;SDS011;59091;47.446;19.148;2024-01-16T02:38:55;3.45;;;2.70;;
71303;SDS011;59091;47.446;19.148;2024-01-16T02:41:20;3.30;;;2.80;;
71303;SDS011;59091;47.446;19.148;2024-01-16T02:43:46;3.70;;;2.88;;
71303;SDS011;59091;47.446;19.148;2024-01-16T02:46:12;3.65;;;3.15;;
71303;SDS011;59091;47.446;19.148;2024-01-16T02:48:38;5.50;;;3.03;;
71303;SDS011;59091;47.446;19.148;2024-01-16T02:51:04;3.88;;;2.78;;
71303;SDS011;59091;47.446;19.148;2024-01-16T02:53:30;7.20;;;3.08;;
71303;SDS011;59091;47.446;19.148;2024-01-16T02:55:56;4.57;;;3.33;;
71303;SDS011;59091;47.446;19.148;2024-01-16T02:58:27;4.13;;;3.50;;
71303;SDS011;59091;47.446;19.148;2024-01-16T03:00:53;4.93;;;3.25;;
71303;SDS011;59091;47.446;19.148;2024-01-16T03:03:19;9.75;;;3.70;;
71303;SDS011;59091;47.446;19.148;2024-01-16T03:05:45;7.80;;;4.13;;
71303;SDS011;59091;47.446;19.148;2024-01-16T03:08:11;6.93;;;4.18;;
71303;SDS011;59091;47.446;19.148;2024-01-16T03:10:36;5.10;;;3.70;;
71303;SDS011;59091;47.446;19.148;2024-01-16T03:13:02;5.55;;;3.97;;
71303;SDS011;59091;47.446;19.148;2024-01-16T03:15:27;8.57;;;4.50;;
71303;SDS011;59091;47.446;19.148;2024-01-16T03:17:55;5.13;;;3.97;;
71303;SDS011;59091;47.446;19.148;2024-01-16T03:20:20;6.30;;;4.43;;
71303;SDS011;59091;47.446;19.148;2024-01-16T03:22:48;7.70;;;4.25;;
71303;SDS011;59091;47.446;19.148;2024-01-16T03:25:13;6.05;;;3.60;;
71303;SDS011;59091;47.446;19.148;2024-01-16T03:27:39;5.47;;;3.53;;
71303;SDS011;59091;47.446;19.148;2024-01-16T03:30:05;6.70;;;4.07;;
71303;SDS011;59091;47.446;19.148;2024-01-16T03:32:31;6.50;;;3.80;;
71303;SDS011;59091;47.446;19.148;2024-01-16T03:34:57;6.57;;;4.07;;
71303;SDS011;59091;47.446;19.148;2024-01-16T03:37:22;7.57;;;4.28;;
71303;SDS011;59091;47.446;19.148;2024-01-16T03:39:47;8.32;;;4.05;;
71303;SDS011;59091;47.446;19.148;2024-01-16T03:42:15;6.22;;;4.40;;
71303;SDS011;59091;47.446;19.148;2024-01-16T03:44:41;5.95;;;3.47;;
71303;SDS011;59091;47.446;19.148;2024-01-16T03:47:07;6.50;;;4.28;;
71303;SDS011;59091;47.446;19.148;2024-01-16T03:49:32;7.45;;;4.50;;
71303;SDS011;59091;47.446;19.148;2024-01-16T03:51:58;8.60;;;4.13;;
71303;SDS011;59091;47.446;19.148;2024-01-16T03:54:24;5.45;;;4.00;;
71303;SDS011;59091;47.446;19.148;2024-01-16T03:56:50;6.18;;;4.22;;
71303;SDS011;59091;47.446;19.148;2024-01-16T03:59:16;8.10;;;4.38;;
71303;SDS011;59091;47.446;19.148;2024-01-16T04:01:41;6.22;;;4.30;;
71303;SDS011;59091;47.446;19.148;2024-01-16T04:04:09;6.30;;;4.18;;
71303;SDS011;59091;47.446;19.148;2024-01-16T04:06:35;6.57;;;4.60;;
71303;SDS011;59091;47.446;19.148;2024-01-16T04:09:01;6.60;;;4.55;;
71303;SDS011;59091;47.446;19.148;2024-01-16T04:11:26;6.15;;;4.18;;
71303;SDS011;59091;47.446;19.148;2024-01-16T04:13:51;10.10;;;4.60;;
71303;SDS011;59091;47.446;19.148;2024-01-16T04:16:17;7.10;;;4.50;;
71303;SDS011;59091;47.446;19.148;2024-01-16T04:18:43;7.10;;;4.03;;
71303;SDS011;59091;47.446;19.148;2024-01-16T04:21:08;8.70;;;4.90;;
71303;SDS011;59091;47.446;19.148;2024-01-16T04:23:34;7.05;;;4.30;;
71303;SDS011;59091;47.446;19.148;2024-01-16T04:25:59;7.20;;;4.20;;
71303;SDS011;59091;47.446;19.148;2024-01-16T04:28:25;6.60;;;4.53;;
71303;SDS011;59091;47.446;19.148;2024-01-16T04:30:51;6.45;;;4.40;;
71303;SDS011;59091;47.446;19.148;2024-01-16T04:33:16;7.22;;;4.57;;
71303;SDS011;59091;47.446;19.148;2024-01-16T04:35:42;5.53;;;3.65;;
71303;SDS011;59091;47.446;19.148;2024-01-16T04:38:07;6.25;;;4.38;;
71303;SDS011;59091;47.446;19.148;2024-01-16T04:40:33;7.40;;;4.40;;
71303;SDS011;59091;47.446;19.148;2024-01-16T04:42:59;6.80;;;3.88;;
71303;SDS011;59091;47.446;19.148;2024-01-16T04:45:24;5.85;;;3.97;;
71303;SDS011;59091;47.446;19.148;2024-01-16T04:47:50;4.88;;;3.00;;
71303;SDS011;59091;47.446;19.148;2024-01-16T04:50:15;6.90;;;3.70;;
71303;SDS011;59091;47.446;19.148;2024-01-16T04:52:41;5.72;;;3.83;;
71303;SDS011;59091;47.446;19.148;2024-01-16T04:55:06;5.90;;;3.63;;
71303;SDS011;59091;47.446;19.148;2024-01-16T04:57:32;5.18;;;3.55;;
71303;SDS011;59091;47.446;19.148;2024-01-16T04:59:58;5.05;;;3.35;;
71303;SDS011;59091;47.446;19.148;2024-01-16T05:02:23;4.55;;;3.70;;
71303;SDS011;59091;47.446;19.148;2024-01-16T05:04:49;5.35;;;3.40;;
71303;SDS011;59091;47.446;19.148;2024-01-16T05:07:17;5.57;;;3.60;;
71303;SDS011;59091;47.446;19.148;2024-01-16T05:09:44;5.47;;;3.30;;
71303;SDS011;59091;47.446;19.148;2024-01-16T05:12:10;5.88;;;3.60;;
71303;SDS011;59091;47.446;19.148;2024-01-16T05:14:35;4.45;;;2.92;;
71303;SDS011;59091;47.446;19.148;2024-01-16T05:17:01;7.43;;;3.25;;
71303;SDS011;59091;47.446;19.148;2024-01-16T05:19:27;3.53;;;3.08;;
71303;SDS011;59091;47.446;19.148;2024-01-16T05:21:52;6.03;;;3.28;;
71303;SDS011;59091;47.446;19.148;2024-01-16T05:24:18;10.35;;;3.50;;
71303;SDS011;59091;47.446;19.148;2024-01-16T05:26:43;7.35;;;3.30;;
71303;SDS011;59091;47.446;19.148;2024-01-16T05:29:09;3.90;;;3.40;;
71303;SDS011;59091;47.446;19.148;2024-01-16T05:31:39;4.63;;;3.05;;
71303;SDS011;59091;47.446;19.148;2024-01-16T05:34:07;4.20;;;3.10;;
71303;SDS011;59091;47.446;19.148;2024-01-16T05:36:33;7.22;;;3.65;;
71303;SDS011;59091;47.446;19.148;2024-01-16T05:38:59;4.82;;;3.40;;
71303;SDS011;59091;47.446;19.148;2024-01-16T05:41:24;8.38;;;3.60;;
71303;SDS011;59091;47.446;19.148;2024-01-16T05:43:49;6.25;;;3.33;;
71303;SDS011;59091;47.446;19.148;2024-01-16T05:46:15;3.60;;;2.90;;
71303;SDS011;59091;47.446;19.148;2024-01-16T05:48:40;4.70;;;3.60;;
71303;SDS011;59091;47.446;19.148;2024-01-16T05:51:06;6.22;;;3.25;;
71303;SDS011;59091;47.446;19.148;2024-01-16T05:53:31;5.10;;;3.22;;
71303;SDS011;59091;47.446;19.148;2024-01-16T05:55:56;4.93;;;3.38;;
71303;SDS011;59091;47.446;19.148;2024-01-16T05:58:22;4.85;;;3.70;;
71303;SDS011;59091;47.446;19.148;2024-01-16T06:00:47;4.68;;;3.47;;
71303;SDS011;59091;47.446;19.148;2024-01-16T06:03:13;10.73;;;3.55;;
71303;SDS011;59091;47.446;19.148;2024-01-16T06:05:38;5.38;;;3.58;;
71303;SDS011;59091;47.446;19.148;2024-01-16T06:08:04;4.80;;;3.40;;
71303;SDS011;59091;47.446;19.148;2024-01-16T06:10:29;6.35;;;2.78;;
71303;SDS011;59091;47.446;19.148;2024-01-16T06:12:55;4.63;;;3.22;;
71303;SDS011;59091;47.446;19.148;2024-01-16T06:15:20;5.20;;;3.58;;
71303;SDS011;59091;47.446;19.148;2024-01-16T06:17:45;15.35;;;3.42;;
71303;SDS011;59091;47.446;19.148;2024-01-16T06:20:11;6.78;;;3.40;;
71303;SDS011;59091;47.446;19.148;2024-01-16T06:22:37;6.50;;;3.70;;
71303;SDS011;59091;47.446;19.148;2024-01-16T06:25:02;5.28;;;3.72;;
71303;SDS011;59091;47.446;19.148;2024-01-16T06:27:28;5.68;;;3.60;;
71303;SDS011;59091;47.446;19.148;2024-01-16T06:29:53;9.88;;;4.10;;
71303;SDS011;59091;47.446;19.148;2024-01-16T06:32:18;7.70;;;4.22;;
71303;SDS011;59091;47.446;19.148;2024-01-16T06:34:44;8.57;;;4.32;;
71303;SDS011;59091;47.446;19.148;2024-01-16T06:37:09;10.15;;;4.65;;
71303;SDS011;59091;47.446;19.148;2024-01-16T06:39:35;6.75;;;4.15;;
71303;SDS011;59091;47.446;19.148;2024-01-16T06:42:03;6.78;;;3.22;;
71303;SDS011;59091;47.446;19.148;2024-01-16T06:44:29;7.18;;;3.65;;
71303;SDS011;59091;47.446;19.148;2024-01-16T06:46:55;5.55;;;3.03;;
71303;SDS011;59091;47.446;19.148;2024-01-16T06:49:20;10.18;;;3.30;;
71303;SDS011;59091;47.446;19.148;2024-01-16T06:51:46;4.78;;;3.33;;
71303;SDS011;59091;47.446;19.148;2024-01-16T06:54:11;10.18;;;3.67;;
71303;SDS011;59091;47.446;19.148;2024-01-16T06:56:36;4.80;;;3.58;;
71303;SDS011;59091;47.446;19.148;2024-01-16T06:59:02;9.07;;;3.55;;
71303;SDS011;59091;47.446;19.148;2024-01-16T07:01:28;4.53;;;3.45;;
71303;SDS011;59091;47.446;19.148;2024-01-16T07:03:53;8.63;;;3.60;;
71303;SDS011;59091;47.446;19.148;2024-01-16T07:06:19;5.38;;;3.53;;
71303;SDS011;59091;47.446;19.148;2024-01-16T07:08:44;7.32;;;3.83;;
71303;SDS011;59091;47.446;19.148;2024-01-16T07:11:10;5.53;;;4.00;;
71303;SDS011;59091;47.446;19.148;2024-01-16T07:13:38;7.28;;;3.95;;
71303;SDS011;59091;47.446;19.148;2024-01-16T07:16:04;6.97;;;4.10;;
71303;SDS011;59091;47.446;19.148;2024-01-16T07:18:29;5.88;;;4.00;;
71303;SDS011;59091;47.446;19.148;2024-01-16T07:20:54;6.13;;;4.07;;
71303;SDS011;59091;47.446;19.148;2024-01-16T07:23:20;5.50;;;3.70;;
71303;SDS011;59091;47.446;19.148;2024-01-16T07:25:45;6.97;;;4.15;;
71303;SDS011;59091;47.446;19.148;2024-01-16T07:28:11;10.77;;;4.30;;
71303;SDS011;59091;47.446;19.148;2024-01-16T07:30:37;7.10;;;4.00;;
71303;SDS011;59091;47.446;19.148;2024-01-16T07:33:03;7.05;;;3.72;;
71303;SDS011;59091;47.446;19.148;2024-01-16T07:35:29;7.30;;;3.88;;
71303;SDS011;59091;47.446;19.148;2024-01-16T07:37:54;7.72;;;3.60;;
71303;SDS011;59091;47.446;19.148;2024-01-16T07:40:19;4.72;;;3.38;;
71303;SDS011;59091;47.446;19.148;2024-01-16T07:42:45;5.28;;;3.03;;
71303;SDS011;59091;47.446;19.148;2024-01-16T07:45:11;5.68;;;2.92;;
71303;SDS011;59091;47.446;19.148;2024-01-16T07:47:36;6.68;;;3.33;;
71303;SDS011;59091;47.446;19.148;2024-01-16T07:50:02;7.10;;;3.25;;
71303;SDS011;59091;47.446;19.148;2024-01-16T07:52:27;3.22;;;2.60;;
71303;SDS011;59091;47.446;19.148;2024-01-16T07:54:53;5.90;;;3.03;;
71303;SDS011;59091;47.446;19.148;2024-01-16T07:57:19;7.57;;;3.05;;
71303;SDS011;59091;47.446;19.148;2024-01-16T07:59:44;3.85;;;2.65;;
71303;SDS011;59091;47.446;19.148;2024-01-16T08:02:10;6.10;;;2.97;;
71303;SDS011;59091;47.446;19.148;2024-01-16T08:04:35;4.53;;;3.25;;
71303;SDS011;59091;47.446;19.148;2024-01-16T08:07:01;5.90;;;2.78;;
71303;SDS011;59091;47.446;19.148;2024-01-16T08:09:27;4.65;;;2.95;;
71303;SDS011;59091;47.446;19.148;2024-01-16T08:11:52;4.43;;;2.67;;
71303;SDS011;59091;47.446;19.148;2024-01-16T08:14:18;7.38;;;2.75;;
71303;SDS011;59091;47.446;19.148;2024-01-16T08:16:43;7.07;;;2.70;;
71303;SDS011;59091;47.446;19.148;2024-01-16T08:19:09;4.68;;;3.20;;
71303;SDS011;59091;47.446;19.148;2024-01-16T08:21:34;8.18;;;3.53;;
71303;SDS011;59091;47.446;19.148;2024-01-16T08:24:00;4.90;;;3.15;;
71303;SDS011;59091;47.446;19.148;2024-01-16T08:26:25;11.82;;;4.20;;
71303;SDS011;59091;47.446;19.148;2024-01-16T08:28:51;7.70;;;3.80;;
71303;SDS011;59091;47.446;19.148;2024-01-16T08:31:17;5.95;;;3.25;;
71303;SDS011;59091;47.446;19.148;2024-01-16T08:33:43;18.13;;;3.05;;
71303;SDS011;59091;47.446;19.148;2024-01-16T08:36:09;5.35;;;3.38;;
71303;SDS011;59091;47.446;19.148;2024-01-16T08:38:34;6.07;;;2.88;;
71303;SDS011;59091;47.446;19.148;2024-01-16T08:41:00;10.98;;;3.22;;
71303;SDS011;59091;47.446;19.148;2024-01-16T08:43:25;5.38;;;2.78;;
71303;SDS011;59091;47.446;19.148;2024-01-16T08:45:50;2.78;;;2.50;;
71303;SDS011;59091;47.446;19.148;2024-01-16T08:48:16;4.63;;;3.05;;
71303;SDS011;59091;47.446;19.148;2024-01-16T08:50:41;4.70;;;2.30;;
71303;SDS011;59091;47.446;19.148;2024-01-16T08:53:07;4.72;;;3.10;;
71303;SDS011;59091;47.446;19.148;2024-01-16T08:55:32;5.25;;;2.80;;
71303;SDS011;59091;47.446;19.148;2024-01-16T08:57:58;7.82;;;3.00;;
71303;SDS011;59091;47.446;19.148;2024-01-16T09:00:24;5.18;;;2.38;;
71303;SDS011;59091;47.446;19.148;2024-01-16T09:02:49;4.28;;;2.53;;
71303;SDS011;59091;47.446;19.148;2024-01-16T09:05:15;3.97;;;2.50;;
71303;SDS011;59091;47.446;19.148;2024-01-16T09:07:41;15.90;;;2.67;;
71303;SDS011;59091;47.446;19.148;2024-01-16T09:10:06;2.67;;;1.98;;
71303;SDS011;59091;47.446;19.148;2024-01-16T09:12:32;5.15;;;2.60;;
71303;SDS011;59091;47.446;19.148;2024-01-16T09:14:58;4.43;;;2.60;;
71303;SDS011;59091;47.446;19.148;2024-01-16T09:17:24;3.95;;;2.50;;
71303;SDS011;59091;47.446;19.148;2024-01-16T09:19:51;4.85;;;2.10;;
71303;SDS011;59091;47.446;19.148;2024-01-16T09:22:16;6.85;;;2.80;;
71303;SDS011;59091;47.446;19.148;2024-01-16T09:24:43;10.95;;;2.50;;
71303;SDS011;59091;47.446;19.148;2024-01-16T09:27:08;6.07;;;2.88;;
71303;SDS011;59091;47.446;19.148;2024-01-16T09:29:35;4.07;;;2.22;;
71303;SDS011;59091;47.446;19.148;2024-01-16T09:32:01;3.10;;;2.22;;
71303;SDS011;59091;47.446;19.148;2024-01-16T09:34:26;3.78;;;1.98;;
71303;SDS011;59091;47.446;19.148;2024-01-16T09:36:51;3.08;;;1.80;;
71303;SDS011;59091;47.446;19.148;2024-01-16T09:39:17;3.20;;;1.73;;
71303;SDS011;59091;47.446;19.148;2024-01-16T09:41:44;3.88;;;1.67;;
71303;SDS011;59091;47.446;19.148;2024-01-16T09:44:10;5.82;;;2.35;;
71303;SDS011;59091;47.446;19.148;2024-01-16T09:46:37;3.42;;;2.20;;
71303;SDS011;59091;47.446;19.148;2024-01-16T09:49:03;7.13;;;2.30;;
71303;SDS011;59091;47.446;19.148;2024-01-16T09:51:29;3.38;;;2.22;;
71303;SDS011;59091;47.446;19.148;2024-01-16T09:53:55;5.63;;;2.45;;
71303;SDS011;59091;47.446;19.148;2024-01-16T09:56:21;6.32;;;2.38;;
71303;SDS011;59091;47.446;19.148;2024-01-16T09:58:49;3.20;;;2.22;;
71303;SDS011;59091;47.446;19.148;2024-01-16T10:01:24;6.28;;;2.90;;
71303;SDS011;59091;47.446;19.148;2024-01-16T10:03:52;3.60;;;2.50;;
71303;SDS011;59091;47.446;19.148;2024-01-16T10:06:17;3.13;;;2.17;;
71303;SDS011;59091;47.446;19.148;2024-01-16T10:08:45;4.30;;;2.40;;
71303;SDS011;59091;47.446;19.148;2024-01-16T10:11:11;3.63;;;2.08;;
71303;SDS011;59091;47.446;19.148;2024-01-16T10:13:36;6.07;;;2.78;;
71303;SDS011;59091;47.446;19.148;2024-01-16T10:16:02;3.65;;;2.20;;
71303;SDS011;59091;47.446;19.148;2024-01-16T10:18:29;7.40;;;2.42;;
71303;SDS011;59091;47.446;19.148;2024-01-16T10:20:59;2.72;;;2.20;;
71303;SDS011;59091;47.446;19.148;2024-01-16T10:23:28;7.85;;;2.42;;
71303;SDS011;59091;47.446;19.148;2024-01-16T10:28:36;3.30;;;2.30;;
71303;SDS011;59091;47.446;19.148;2024-01-16T10:31:03;4.20;;;2.47;;
71303;SDS011;59091;47.446;19.148;2024-01-16T10:33:30;4.60;;;2.55;;
71303;SDS011;59091;47.446;19.148;2024-01-16T10:36:12;6.93;;;2.10;;
71303;SDS011;59091;47.446;19.148;2024-01-16T10:38:40;3.97;;;2.42;;
71303;SDS011;59091;47.446;19.148;2024-01-16T10:41:10;5.28;;;2.55;;
71303;SDS011;59091;47.446;19.148;2024-01-16T10:43:36;5.97;;;2.55;;
71303;SDS011;59091;47.446;19.148;2024-01-16T10:46:15;4.63;;;2.35;;
71303;SDS011;59091;47.446;19.148;2024-01-16T10:48:45;7.10;;;2.63;;
71303;SDS011;59091;47.446;19.148;2024-01-16T10:51:27;3.15;;;2.30;;
71303;SDS011;59091;47.446;19.148;2024-01-16T10:53:57;6.20;;;2.38;;
71303;SDS011;59091;47.446;19.148;2024-01-16T10:56:24;4.50;;;2.40;;
71303;SDS011;59091;47.446;19.148;2024-01-16T10:58:54;9.25;;;2.33;;
71303;SDS011;59091;47.446;19.148;2024-01-16T11:01:30;2.80;;;2.10;;
71303;SDS011;59091;47.446;19.148;2024-01-16T11:03:56;4.97;;;2.58;;
71303;SDS011;59091;47.446;19.148;2024-01-16T11:06:24;6.40;;;2.70;;
71303;SDS011;59091;47.446;19.148;2024-01-16T11:08:50;5.75;;;2.78;;
71303;SDS011;59091;47.446;19.148;2024-01-16T11:11:17;3.88;;;2.33;;
71303;SDS011;59091;47.446;19.148;2024-01-16T11:13:43;5.13;;;3.03;;
71303;SDS011;59091;47.446;19.148;2024-01-16T11:16:10;5.30;;;2.35;;
71303;SDS011;59091;47.446;19.148;2024-01-16T11:18:36;5.72;;;2.80;;
71303;SDS011;59091;47.446;19.148;2024-01-16T11:21:06;3.13;;;2.10;;
71303;SDS011;59091;47.446;19.148;2024-01-16T11:23:33;7.85;;;3.28;;
71303;SDS011;59091;47.446;19.148;2024-01-16T11:26:00;6.55;;;2.80;;
71303;SDS011;59091;47.446;19.148;2024-01-16T11:28:45;6.05;;;2.88;;
71303;SDS011;59091;47.446;19.148;2024-01-16T11:31:29;14.95;;;3.00;;
71303;SDS011;59091;47.446;19.148;2024-01-16T11:33:59;5.90;;;2.80;;
71303;SDS011;59091;47.446;19.148;2024-01-16T11:39:22;4.22;;;2.88;;
71303;SDS011;59091;47.446;19.148;2024-01-16T11:41:51;6.38;;;2.97;;
71303;SDS011;59091;47.446;19.148;2024-01-16T11:45:03;5.13;;;3.17;;
71303;SDS011;59091;47.446;19.148;2024-01-16T11:47:04;7.97;;;3.17;;
71303;SDS011;59091;47.446;19.148;2024-01-16T11:49:29;8.38;;;3.60;;
71303;SDS011;59091;47.446;19.148;2024-01-16T11:51:58;10.63;;;3.55;;
71303;SDS011;59091;47.446;19.148;2024-01-16T11:54:24;5.88;;;2.83;;
71303;SDS011;59091;47.446;19.148;2024-01-16T11:57:08;7.60;;;3.08;;
71303;SDS011;59091;47.446;19.148;2024-01-16T12:00:04;5.65;;;2.53;;
71303;SDS011;59091;47.446;19.148;2024-01-16T12:02:52;6.63;;;2.95;;
71303;SDS011;59091;47.446;19.148;2024-01-16T12:05:19;3.78;;;2.40;;
71303;SDS011;59091;47.446;19.148;2024-01-16T12:07:46;3.60;;;2.33;;
71303;SDS011;59091;47.446;19.148;2024-01-16T12:10:19;5.07;;;2.45;;
71303;SDS011;59091;47.446;19.148;2024-01-16T12:12:46;5.20;;;2.28;;
71303;SDS011;59091;47.446;19.148;2024-01-16T12:15:13;10.50;;;2.85;;
71303;SDS011;59091;47.446;19.148;2024-01-16T12:17:51;5.35;;;2.60;;
71303;SDS011;59091;47.446;19.148;2024-01-16T12:20:28;4.90;;;2.45;;
71303;SDS011;59091;47.446;19.148;2024-01-16T12:22:58;3.67;;;2.28;;
71303;SDS011;59091;47.446;19.148;2024-01-16T12:25:28;5.80;;;2.38;;
71303;SDS011;59091;47.446;19.148;2024-01-16T12:27:55;4.18;;;2.40;;
71303;SDS011;59091;47.446;19.148;2024-01-16T12:30:23;4.43;;;2.40;;
71303;SDS011;59091;47.446;19.148;2024-01-16T12:32:49;6.00;;;1.92;;
71303;SDS011;59091;47.446;19.148;2024-01-16T12:35:19;3.70;;;2.10;;
71303;SDS011;59091;47.446;19.148;2024-01-16T12:37:57;3.28;;;2.30;;
71303;SDS011;59091;47.446;19.148;2024-01-16T12:40:23;3.67;;;2.40;;
71303;SDS011;59091;47.446;19.148;2024-01-16T12:42:50;4.45;;;2.50;;
71303;SDS011;59091;47.446;19.148;2024-01-16T12:45:16;1.80;;;1.60;;
71303;SDS011;59091;47.446;19.148;2024-01-16T12:47:42;5.63;;;2.20;;
71303;SDS011;59091;47.446;19.148;2024-01-16T12:50:09;10.48;;;2.50;;
71303;SDS011;59091;47.446;19.148;2024-01-16T12:52:35;4.63;;;2.17;;
71303;SDS011;59091;47.446;19.148;2024-01-16T12:55:01;4.05;;;2.25;;
71303;SDS011;59091;47.446;19.148;2024-01-16T12:57:29;2.85;;;2.00;;
71303;SDS011;59091;47.446;19.148;2024-01-16T12:59:54;8.98;;;2.25;;
71303;SDS011;59091;47.446;19.148;2024-01-16T13:02:22;5.60;;;2.90;;
71303;SDS011;59091;47.446;19.148;2024-01-16T13:04:56;4.63;;;2.40;;
71303;SDS011;59091;47.446;19.148;2024-01-16T13:07:23;2.33;;;1.70;;
71303;SDS011;59091;47.446;19.148;2024-01-16T13:09:49;2.33;;;1.52;;
71303;SDS011;59091;47.446;19.148;2024-01-16T13:12:21;3.13;;;1.40;;
71303;SDS011;59091;47.446;19.148;2024-01-16T13:14:46;6.13;;;1.40;;
71303;SDS011;59091;47.446;19.148;2024-01-16T13:17:12;4.35;;;1.30;;
71303;SDS011;59091;47.446;19.148;2024-01-16T13:19:37;2.40;;;1.33;;
71303;SDS011;59091;47.446;19.148;2024-01-16T13:22:04;3.25;;;1.83;;
71303;SDS011;59091;47.446;19.148;2024-01-16T13:24:31;8.63;;;1.80;;
71303;SDS011;59091;47.446;19.148;2024-01-16T13:26:57;2.33;;;1.45;;
71303;SDS011;59091;47.446;19.148;2024-01-16T13:29:23;3.75;;;1.40;;
71303;SDS011;59091;47.446;19.148;2024-01-16T13:31:48;5.32;;;1.60;;
71303;SDS011;59091;47.446;19.148;2024-01-16T13:34:19;6.43;;;1.95;;
71303;SDS011;59091;47.446;19.148;2024-01-16T13:36:46;2.28;;;1.58;;
71303;SDS011;59091;47.446;19.148;2024-01-16T13:39:14;1.70;;;1.40;;
71303;SDS011;59091;47.446;19.148;2024-01-16T13:41:39;3.30;;;1.33;;
71303;SDS011;59091;47.446;19.148;2024-01-16T13:44:05;2.55;;;1.30;;
71303;SDS011;59091;47.446;19.148;2024-01-16T13:46:31;2.28;;;1.45;;
71303;SDS011;59091;47.446;19.148;2024-01-16T13:48:56;4.38;;;1.30;;
71303;SDS011;59091;47.446;19.148;2024-01-16T13:51:22;2.67;;;1.42;;
71303;SDS011;59091;47.446;19.148;2024-01-16T13:53:47;4.97;;;1.40;;
71303;SDS011;59091;47.446;19.148;2024-01-16T13:56:13;2.55;;;1.40;;
71303;SDS011;59091;47.446;19.148;2024-01-16T13:58:38;4.28;;;1.98;;
71303;SDS011;59091;47.446;19.148;2024-01-16T14:01:04;5.18;;;1.67;;
71303;SDS011;59091;47.446;19.148;2024-01-16T14:03:29;9.80;;;1.70;;
71303;SDS011;59091;47.446;19.148;2024-01-16T14:05:54;2.78;;;1.30;;
71303;SDS011;59091;47.446;19.148;2024-01-16T14:08:20;5.88;;;1.30;;
71303;SDS011;59091;47.446;19.148;2024-01-16T14:10:46;3.15;;;1.80;;
71303;SDS011;59091;47.446;19.148;2024-01-16T14:13:12;3.67;;;1.35;;
71303;SDS011;59091;47.446;19.148;2024-01-16T14:15:38;1.20;;;1.10;;
71303;SDS011;59091;47.446;19.148;2024-01-16T14:18:04;4.43;;;1.40;;
71303;SDS011;59091;47.446;19.148;2024-01-16T14:20:29;2.63;;;1.77;;
71303;SDS011;59091;47.446;19.148;2024-01-16T14:22:55;4.57;;;1.77;;
71303;SDS011;59091;47.446;19.148;2024-01-16T14:25:21;1.70;;;1.30;;
71303;SDS011;59091;47.446;19.148;2024-01-16T14:30:28;3.10;;;1.70;;
71303;SDS011;59091;47.446;19.148;2024-01-16T14:32:55;4.18;;;1.80;;
71303;SDS011;59091;47.446;19.148;2024-01-16T14:35:21;10.98;;;2.03;;
71303;SDS011;59091;47.446;19.148;2024-01-16T14:37:48;8.27;;;1.85;;